KPUC/PUC METAR and TAF weather

Enter ICAO airport designator
Station Type Date Time Source
KPUC METAR 2020/07/14 05:53 UTC NOAA

KPUC 140553Z AUTO 09005KT 10SM CLR 24/05 A3000 RMK AO2 SLP037 T02440050 10344 20228 53014


Station Type Date Time Source
KPUC Decoded METAR 2020/07/14 05:53 UTC NOAA

PRICE CARBON COUNTY AIRPORT, UT, United States (KPUC) 39-37N 110-45W 2091M
Jul 14, 2020 - 01:53 AM EDT / 2020.07.14 0553 UTC
Wind: from the E (090 degrees) at 6 MPH (5 KT):0
Visibility: 10 mile(s):0
Sky conditions: clear
Temperature: 75.9 F (24.4 C)
Dew Point: 41.0 F (5.0 C)
Relative Humidity: 28%
Pressure (altimeter): 30 in. Hg (1015 hPa)
Pressure tendency: 0.04 inches (1.4 hPa) higher than three hours ago
ob: KPUC 140553Z AUTO 09005KT 10SM CLR 24/05 A3000 RMK AO2 SLP037 T02440050 10344 20228 53014
cycle: 6

Station Type Date Time Source
KPUC TAF UTC NOAA

Error!

Example: see airport list